Time;durP1;ratioP1;P1;durP2;ratioP2;P2;SDS_P1;SDS_P2;PMS_P1;PMS_P2;Temp;Humidity;BMP_temperature;BMP_pressure;BME280_temperature;BME280_humidity;BME280_pressure;Samples;Min_cycle;Max_cycle;Signal;HPM_P1;HPM_P2
2022/06/12 00:02:24;;;;;;;3.38;2.10;;;13.40;99.90;;;;;;4978605;28;20050;-77
2022/06/12 00:04:50;;;;;;;4.03;2.25;;;13.40;99.90;;;;;;4993744;28;20119;-76
2022/06/12 00:07:16;;;;;;;3.30;2.08;;;13.40;99.90;;;;;;4968576;28;20091;-79
2022/06/12 00:09:42;;;;;;;3.78;2.33;;;13.40;99.90;;;;;;4975536;28;20061;-79
2022/06/12 00:12:08;;;;;;;3.88;2.10;;;13.40;99.90;;;;;;4983664;28;20050;-79
2022/06/12 00:14:34;;;;;;;2.80;1.80;;;13.40;99.90;;;;;;4965220;28;20325;-79
2022/06/12 00:17:00;;;;;;;7.25;2.30;;;13.40;99.90;;;;;;4982021;28;20451;-80
2022/06/12 00:19:25;;;;;;;3.35;1.77;;;13.40;99.90;;;;;;4987100;28;20049;-79
2022/06/12 00:21:51;;;;;;;4.57;2.20;;;13.30;99.90;;;;;;4975146;28;20610;-75
2022/06/12 00:24:20;;;;;;;4.20;2.30;;;13.20;99.90;;;;;;4974078;28;20716;-74
2022/06/12 00:26:49;;;;;;;4.32;2.20;;;13.20;99.90;;;;;;5001549;28;20049;-75
2022/06/12 00:29:22;;;;;;;4.57;2.03;;;13.20;99.90;;;;;;4983574;28;20066;-75
2022/06/12 00:31:55;;;;;;;3.15;2.03;;;13.20;99.90;;;;;;4981673;28;20050;-75
2022/06/12 00:34:23;;;;;;;3.08;2.08;;;13.20;99.90;;;;;;4982946;28;20047;-80
2022/06/12 00:36:49;;;;;;;3.30;2.08;;;13.20;99.90;;;;;;4976185;28;20156;-80
2022/06/12 00:39:16;;;;;;;5.13;2.20;;;13.10;99.90;;;;;;4970188;28;20593;-79
2022/06/12 00:41:45;;;;;;;3.35;1.95;;;13.10;99.90;;;;;;4968340;28;20105;-76
2022/06/12 00:44:16;;;;;;;3.17;1.80;;;13.10;99.90;;;;;;4984699;28;20123;-75
2022/06/12 00:47:04;;;;;;;3.72;2.25;;;13.10;99.90;;;;;;4985147;28;20047;-75
2022/06/12 00:49:50;;;;;;;3.72;2.45;;;13.00;99.90;;;;;;4980742;28;20466;-76
2022/06/12 00:52:25;;;;;;;5.05;2.40;;;13.00;99.90;;;;;;4974913;28;20081;-75
2022/06/12 00:54:56;;;;;;;10.95;6.78;;;12.90;99.90;;;;;;4974210;28;20093;-77
2022/06/12 00:57:24;;;;;;;6.13;3.53;;;12.90;99.90;;;;;;4983345;28;20053;-78
2022/06/12 00:59:54;;;;;;;2.90;2.67;;;12.90;99.90;;;;;;4975206;28;20046;-78
2022/06/12 01:02:24;;;;;;;5.78;2.22;;;12.90;99.90;;;;;;4968764;28;20054;-80
2022/06/12 01:07:50;;;;;;;7.50;2.75;;;12.80;99.90;;;;;;4981080;28;21054;-81
2022/06/12 01:10:18;;;;;;;4.00;2.65;;;12.80;99.90;;;;;;4973124;28;20577;-82
2022/06/12 01:12:50;;;;;;;6.22;2.92;;;12.80;99.90;;;;;;4981837;28;20045;-76
2022/06/12 01:15:28;;;;;;;7.87;2.87;;;12.80;99.90;;;;;;4977022;28;20054;-81
2022/06/12 01:17:56;;;;;;;4.07;2.47;;;12.80;99.90;;;;;;4979592;28;20125;-82
2022/06/12 01:20:25;;;;;;;8.88;4.85;;;12.80;99.90;;;;;;4973818;28;20232;-76
2022/06/12 01:23:25;;;;;;;4.15;2.42;;;12.70;99.90;;;;;;4977975;28;20046;-76
2022/06/12 01:26:24;;;;;;;4.03;2.53;;;12.80;99.90;;;;;;4971877;28;20937;-75
2022/06/12 01:28:56;;;;;;;3.75;2.30;;;12.70;99.90;;;;;;4951214;28;20138;-75
2022/06/12 01:31:48;;;;;;;17.40;12.10;;;12.70;99.90;;;;;;4978280;28;20310;-79
2022/06/12 01:34:21;;;;;;;6.95;2.58;;;12.70;99.90;;;;;;4981765;28;20086;-80
2022/06/12 01:36:55;;;;;;;7.43;2.97;;;12.70;99.90;;;;;;4983598;28;20050;-79
2022/06/12 01:39:24;;;;;;;4.97;3.80;;;12.70;99.90;;;;;;4991486;28;20058;-79
2022/06/12 01:42:15;;;;;;;3.90;2.17;;;12.70;99.90;;;;;;4972284;28;20046;-79
2022/06/12 01:45:32;;;;;;;7.55;3.05;;;12.60;99.90;;;;;;4990756;28;20046;-80
2022/06/12 01:48:25;;;;;;;8.57;3.40;;;12.60;99.90;;;;;;4962443;28;20065;-79
2022/06/12 01:50:56;;;;;;;4.70;2.40;;;12.60;99.90;;;;;;4961906;28;20066;-79
2022/06/12 01:53:45;;;;;;;5.97;2.55;;;12.60;99.90;;;;;;4957369;28;20573;-79
2022/06/12 01:56:23;;;;;;;4.25;2.50;;;12.50;99.90;;;;;;4975277;28;20130;-78
2022/06/12 01:59:05;;;;;;;2.92;2.25;;;12.50;99.90;;;;;;4981068;28;20085;-78
2022/06/12 02:01:42;;;;;;;5.53;3.40;;;12.50;99.90;;;;;;4971980;28;20050;-78
2022/06/12 02:04:17;;;;;;;5.35;2.72;;;12.50;99.90;;;;;;4956477;28;20064;-79
2022/06/12 02:06:53;;;;;;;5.47;3.42;;;12.40;99.90;;;;;;4988809;28;20049;-75
2022/06/12 02:09:44;;;;;;;4.47;2.50;;;12.40;99.90;;;;;;4972908;28;20115;-74
2022/06/12 02:15:22;;;;;;;3.10;2.13;;;12.40;99.90;;;;;;4980066;28;20065;-74
2022/06/12 02:18:11;;;;;;;3.78;2.63;;;12.40;99.90;;;;;;4971959;28;20644;-74
2022/06/12 02:20:42;;;;;;;5.47;2.88;;;12.40;99.90;;;;;;4968442;28;20153;-74
2022/06/12 02:23:31;;;;;;;6.00;2.63;;;12.40;99.90;;;;;;4971884;28;20062;-74
2022/06/12 02:25:57;;;;;;;5.10;2.58;;;12.40;99.90;;;;;;4964557;28;20065;-74
2022/06/12 02:28:31;;;;;;;4.38;2.25;;;12.40;99.90;;;;;;4998278;28;20060;-75
2022/06/12 02:31:02;;;;;;;13.02;3.20;;;12.40;99.90;;;;;;4978730;28;20047;-74
2022/06/12 02:33:35;;;;;;;6.05;2.55;;;12.40;99.90;;;;;;4978987;28;20542;-74
2022/06/12 02:36:22;;;;;;;6.85;2.33;;;12.40;99.90;;;;;;4978532;28;20124;-75
2022/06/12 02:38:51;;;;;;;8.32;3.70;;;12.40;99.90;;;;;;4996619;28;20049;-75
2022/06/12 02:41:37;;;;;;;5.07;2.63;;;12.40;99.90;;;;;;4974392;28;20051;-76
2022/06/12 02:44:13;;;;;;;8.50;5.20;;;12.40;99.90;;;;;;4989834;28;20046;-78
2022/06/12 02:47:01;;;;;;;6.18;3.17;;;12.40;99.90;;;;;;4984871;28;20050;-74
2022/06/12 02:49:27;;;;;;;4.20;2.30;;;12.40;99.90;;;;;;4992866;28;20053;-74
2022/06/12 02:52:36;;;;;;;7.90;2.40;;;12.40;99.90;;;;;;4979832;28;20073;-74
2022/06/12 02:55:12;;;;;;;5.65;2.88;;;12.30;99.90;;;;;;4977872;28;20471;-74
2022/06/12 02:57:58;;;;;;;9.05;2.97;;;12.40;99.90;;;;;;4979796;28;20058;-74
2022/06/12 03:00:29;;;;;;;7.18;2.80;;;12.40;99.90;;;;;;4983994;28;20973;-74
2022/06/12 03:03:13;;;;;;;7.40;2.83;;;12.30;99.90;;;;;;4984153;28;20042;-74
2022/06/12 03:05:41;;;;;;;6.35;2.55;;;12.40;99.90;;;;;;4984852;28;20486;-74
2022/06/12 03:08:18;;;;;;;4.97;2.75;;;12.30;99.90;;;;;;4981010;28;20117;-74
2022/06/12 03:10:53;;;;;;;3.70;2.47;;;12.40;99.90;;;;;;4974584;28;20082;-74
2022/06/12 03:13:20;;;;;;;4.38;2.10;;;12.30;99.90;;;;;;4957495;28;20058;-74
2022/06/12 03:16:01;;;;;;;4.43;2.38;;;12.30;99.90;;;;;;4992350;28;20400;-75
2022/06/12 03:18:31;;;;;;;9.05;2.33;;;12.30;99.90;;;;;;4966236;28;20053;-74
2022/06/12 03:21:06;;;;;;;10.18;5.03;;;12.30;99.90;;;;;;4982808;28;20096;-74
2022/06/12 03:23:45;;;;;;;5.18;3.38;;;12.30;99.90;;;;;;4965721;28;20050;-74
2022/06/12 03:26:23;;;;;;;5.85;2.72;;;12.30;99.90;;;;;;4986092;28;20054;-74
2022/06/12 03:29:20;;;;;;;8.07;3.40;;;12.30;99.90;;;;;;4993914;28;20049;-75
2022/06/12 03:32:02;;;;;;;3.33;2.30;;;12.20;99.90;;;;;;4973715;28;20046;-74
2022/06/12 03:34:35;;;;;;;5.68;2.88;;;12.20;99.90;;;;;;4990409;28;20073;-74
2022/06/12 03:37:07;;;;;;;6.60;2.50;;;12.20;99.90;;;;;;4984012;28;20054;-74
2022/06/12 03:40:05;;;;;;;3.95;2.67;;;12.20;99.90;;;;;;4983395;28;20844;-74
2022/06/12 03:42:50;;;;;;;4.97;2.47;;;12.20;99.90;;;;;;4981304;28;20039;-74
2022/06/12 03:45:24;;;;;;;6.22;2.03;;;12.20;99.90;;;;;;4968658;28;20145;-75
2022/06/12 03:48:03;;;;;;;5.63;2.70;;;12.20;99.90;;;;;;4980020;28;20144;-74
2022/06/12 03:50:44;;;;;;;5.47;2.95;;;12.20;99.90;;;;;;4984693;28;20836;-74
2022/06/12 03:53:20;;;;;;;3.20;2.65;;;12.20;99.90;;;;;;4981499;28;20113;-75
2022/06/12 03:58:47;;;;;;;6.70;2.40;;;12.20;99.90;;;;;;4982598;28;20065;-75
2022/06/12 04:01:14;;;;;;;5.43;2.63;;;12.30;99.90;;;;;;4973269;28;20125;-75
2022/06/12 04:03:43;;;;;;;5.15;2.63;;;12.30;99.90;;;;;;4986637;28;20042;-75
2022/06/12 04:06:18;;;;;;;6.97;3.45;;;12.40;99.90;;;;;;4983247;28;20054;-78
2022/06/12 04:08:53;;;;;;;8.32;5.80;;;12.30;99.90;;;;;;4970738;28;20050;-76
2022/06/12 04:11:22;;;;;;;3.50;2.30;;;12.40;99.90;;;;;;4991332;28;20600;-77
2022/06/12 04:13:49;;;;;;;3.70;2.28;;;12.50;99.90;;;;;;4975964;28;20141;-76
2022/06/12 04:16:33;;;;;;;4.75;2.72;;;12.50;99.90;;;;;;4990988;28;20458;-76
2022/06/12 04:19:02;;;;;;;5.95;2.45;;;12.50;99.90;;;;;;4982985;28;20583;-76
2022/06/12 04:21:38;;;;;;;6.45;2.35;;;12.60;99.90;;;;;;4981981;28;20046;-75
2022/06/12 04:24:16;;;;;;;4.10;2.13;;;12.60;99.90;;;;;;4977115;28;20069;-76
2022/06/12 04:27:04;;;;;;;3.63;2.10;;;12.60;99.90;;;;;;4981957;28;20049;-76
2022/06/12 04:29:34;;;;;;;3.88;2.80;;;12.70;99.90;;;;;;4985178;28;20050;-76
2022/06/12 04:32:04;;;;;;;4.05;2.53;;;12.70;99.90;;;;;;4984717;28;20050;-75
2022/06/12 04:34:40;;;;;;;4.40;2.28;;;12.80;99.90;;;;;;4980602;28;20050;-75
2022/06/12 04:37:13;;;;;;;4.57;2.33;;;12.90;99.90;;;;;;4979873;28;20141;-75
2022/06/12 04:39:39;;;;;;;5.43;2.55;;;12.90;99.90;;;;;;4987681;28;20049;-75
2022/06/12 04:42:06;;;;;;;6.18;2.30;;;13.00;99.90;;;;;;4955399;28;20061;-75
2022/06/12 04:44:32;;;;;;;3.33;2.53;;;13.00;99.90;;;;;;4983925;28;20062;-75
2022/06/12 04:47:00;;;;;;;4.30;2.72;;;13.10;99.90;;;;;;4981515;28;20054;-75
2022/06/12 04:49:29;;;;;;;3.88;1.83;;;13.10;99.90;;;;;;4965787;28;20042;-75
2022/06/12 04:51:58;;;;;;;4.63;2.22;;;13.20;99.90;;;;;;4980376;28;20129;-75
2022/06/12 04:54:25;;;;;;;5.20;2.53;;;13.30;99.90;;;;;;4976490;28;20081;-77
2022/06/12 04:56:51;;;;;;;4.90;3.15;;;13.30;99.90;;;;;;4987681;28;20054;-77
2022/06/12 04:59:19;;;;;;;10.23;4.75;;;13.40;99.90;;;;;;4984570;28;20050;-78
2022/06/12 05:01:46;;;;;;;5.32;3.17;;;13.50;99.90;;;;;;4986782;28;20133;-77
2022/06/12 05:04:13;;;;;;;4.88;2.90;;;13.60;99.90;;;;;;4987136;28;20041;-78
2022/06/12 05:06:40;;;;;;;11.27;2.95;;;13.60;99.90;;;;;;4976999;28;20528;-78
2022/06/12 05:09:07;;;;;;;9.68;4.50;;;13.70;99.90;;;;;;4984578;28;20776;-78
2022/06/12 05:11:33;;;;;;;4.70;3.33;;;13.80;99.90;;;;;;4991332;28;20050;-78
2022/06/12 05:13:59;;;;;;;9.15;2.60;;;13.90;99.90;;;;;;4987577;28;20687;-77
2022/06/12 05:16:30;;;;;;;10.93;3.67;;;14.00;99.90;;;;;;4983128;28;20109;-78
2022/06/12 05:18:57;;;;;;;7.00;2.85;;;14.00;99.90;;;;;;4963154;28;20112;-77
2022/06/12 05:21:24;;;;;;;5.43;2.75;;;14.10;99.90;;;;;;4981810;28;20053;-78
2022/06/12 05:23:50;;;;;;;9.73;2.88;;;14.20;99.90;;;;;;4973928;28;20057;-79
2022/06/12 05:26:17;;;;;;;5.50;2.72;;;14.30;99.90;;;;;;4973777;28;20238;-77
2022/06/12 05:28:43;;;;;;;4.95;2.63;;;14.40;99.90;;;;;;4965908;28;21038;-77
2022/06/12 05:31:09;;;;;;;5.80;2.78;;;14.50;99.90;;;;;;4989879;28;20038;-77
2022/06/12 05:33:35;;;;;;;7.55;2.95;;;14.60;99.90;;;;;;4987402;28;20599;-77
2022/06/12 05:36:02;;;;;;;9.70;5.03;;;14.70;99.90;;;;;;4989228;28;20089;-78
2022/06/12 05:38:27;;;;;;;14.23;10.48;;;14.80;99.90;;;;;;4986416;28;20190;-79
2022/06/12 05:40:53;;;;;;;10.07;5.78;;;14.90;99.90;;;;;;4983553;28;20054;-78
2022/06/12 05:43:19;;;;;;;8.70;4.85;;;15.10;99.90;;;;;;4989865;28;20416;-78
2022/06/12 05:45:44;;;;;;;10.70;4.63;;;15.10;99.90;;;;;;4979989;28;20128;-76
2022/06/12 05:48:15;;;;;;;47.20;32.58;;;15.30;99.90;;;;;;4995374;28;20145;-78
2022/06/12 05:50:58;;;;;;;19.73;14.00;;;15.40;99.90;;;;;;4991559;28;20167;-79
2022/06/12 05:53:27;;;;;;;11.65;5.35;;;15.50;99.90;;;;;;4977297;28;20205;-79
2022/06/12 05:55:54;;;;;;;6.10;3.80;;;15.60;99.90;;;;;;4992689;28;20145;-79
2022/06/12 05:58:21;;;;;;;8.68;3.65;;;15.70;99.90;;;;;;4994487;28;20053;-78
2022/06/12 06:00:48;;;;;;;12.60;4.18;;;15.80;99.90;;;;;;4970075;28;20046;-76
2022/06/12 06:03:14;;;;;;;10.55;3.40;;;15.90;99.90;;;;;;4976721;28;20042;-78
2022/06/12 06:05:42;;;;;;;13.43;3.53;;;16.00;99.90;;;;;;4975426;28;20128;-78
2022/06/12 06:08:08;;;;;;;17.35;9.15;;;16.20;99.90;;;;;;4971281;28;20138;-77
2022/06/12 06:10:35;;;;;;;15.90;8.68;;;16.30;99.90;;;;;;4987279;28;20249;-77
2022/06/12 06:13:01;;;;;;;18.40;9.82;;;16.60;99.90;;;;;;4985158;28;20048;-77
2022/06/12 06:15:27;;;;;;;14.57;6.75;;;16.70;99.90;;;;;;4976037;28;20221;-78
2022/06/12 06:17:53;;;;;;;15.45;6.70;;;17.00;99.90;;;;;;4978408;28;20464;-79
2022/06/12 06:20:29;;;;;;;10.35;5.32;;;17.80;99.90;;;;;;4984303;28;20046;-78
2022/06/12 06:22:55;;;;;;;9.70;4.70;;;19.10;99.90;;;;;;4974331;28;20178;-77
2022/06/12 06:25:22;;;;;;;6.47;4.10;;;20.00;99.90;;;;;;4981327;28;20062;-79
2022/06/12 06:27:48;;;;;;;23.92;17.35;;;20.70;99.90;;;;;;4980440;28;20577;-78
2022/06/12 06:30:14;;;;;;;58.53;41.80;;;21.40;99.90;;;;;;4959112;28;20042;-79
2022/06/12 06:32:41;;;;;;;32.80;23.05;;;22.00;99.90;;;;;;4969788;28;20497;-79
2022/06/12 06:35:09;;;;;;;20.20;10.75;;;22.60;99.90;;;;;;4983449;28;20867;-78
2022/06/12 06:37:35;;;;;;;12.60;5.68;;;23.00;99.90;;;;;;4982693;28;20062;-80
2022/06/12 06:40:02;;;;;;;12.85;4.95;;;23.50;99.90;;;;;;4986771;28;20053;-79
2022/06/12 06:42:27;;;;;;;8.45;4.63;;;23.60;99.90;;;;;;4988039;28;20053;-81
2022/06/12 06:47:38;;;;;;;11.75;4.20;;;24.70;99.90;;;;;;4986751;28;20136;-78
2022/06/12 06:50:06;;;;;;;10.20;4.30;;;25.30;99.50;;;;;;4996410;28;20122;-77
2022/06/12 06:52:32;;;;;;;6.80;3.65;;;25.40;98.00;;;;;;4989372;28;20128;-79
2022/06/12 06:54:58;;;;;;;10.82;3.60;;;25.50;97.60;;;;;;4973719;28;20073;-77
2022/06/12 06:57:23;;;;;;;40.30;23.45;;;25.80;96.80;;;;;;4997204;28;20052;-77
2022/06/12 06:59:49;;;;;;;59.05;46.30;;;26.20;96.30;;;;;;4968741;28;20072;-79
2022/06/12 07:02:15;;;;;;;21.25;12.00;;;26.20;95.70;;;;;;4995222;28;20060;-79
2022/06/12 07:04:41;;;;;;;13.77;6.97;;;26.30;95.10;;;;;;4982735;28;20046;-79
2022/06/12 07:07:08;;;;;;;12.85;6.85;;;26.70;94.20;;;;;;4967888;28;20381;-79
2022/06/12 07:09:35;;;;;;;11.45;4.93;;;26.70;94.10;;;;;;4980886;28;20053;-79
2022/06/12 07:12:02;;;;;;;13.88;5.07;;;27.10;93.90;;;;;;4989264;28;20089;-79
2022/06/12 07:14:28;;;;;;;16.65;8.95;;;27.30;93.50;;;;;;4972676;28;20486;-78
2022/06/12 07:16:55;;;;;;;16.55;6.80;;;27.30;90.90;;;;;;4997365;28;20054;-79
2022/06/12 07:19:22;;;;;;;18.73;11.10;;;27.60;92.60;;;;;;4970799;28;20049;-79
2022/06/12 07:21:47;;;;;;;20.25;7.53;;;27.50;92.10;;;;;;4989834;28;20053;-77
2022/06/12 07:24:13;;;;;;;11.23;6.32;;;27.30;92.00;;;;;;4982420;28;20052;-79
2022/06/12 07:26:41;;;;;;;11.02;5.68;;;27.00;91.90;;;;;;4980444;28;20065;-75
2022/06/12 07:29:07;;;;;;;14.45;5.47;;;27.80;91.80;;;;;;4981258;28;20368;-77
2022/06/12 07:31:33;;;;;;;11.27;3.50;;;27.90;91.30;;;;;;4990100;28;20435;-79
2022/06/12 07:33:59;;;;;;;9.98;4.50;;;27.90;91.10;;;;;;4984576;28;20761;-80
2022/06/12 07:36:29;;;;;;;10.35;3.55;;;27.70;91.00;;;;;;4989507;28;20062;-79
2022/06/12 07:38:55;;;;;;;11.48;4.43;;;27.40;90.70;;;;;;4982270;28;20050;-80
2022/06/12 07:41:21;;;;;;;7.70;3.97;;;27.30;90.70;;;;;;4989824;28;20486;-81
2022/06/12 07:43:48;;;;;;;12.10;4.10;;;27.50;90.60;;;;;;4987408;28;20042;-77
2022/06/12 07:46:17;;;;;;;9.73;4.20;;;28.10;90.40;;;;;;4989966;28;20046;-79
2022/06/12 07:48:44;;;;;;;8.48;3.55;;;28.20;90.10;;;;;;4989462;28;20128;-79
2022/06/12 07:51:14;;;;;;;6.88;3.28;;;28.50;89.20;;;;;;4989053;28;20094;-79
2022/06/12 07:53:40;;;;;;;8.20;3.45;;;28.80;88.40;;;;;;4989342;28;20042;-78
2022/06/12 07:56:08;;;;;;;7.72;3.28;;;28.70;87.30;;;;;;4991259;28;20049;-79
2022/06/12 07:58:35;;;;;;;10.32;3.30;;;28.90;86.90;;;;;;4978902;28;20849;-79
2022/06/12 08:01:04;;;;;;;6.43;2.42;;;28.70;86.10;;;;;;4991488;28;20073;-82
2022/06/12 08:03:31;;;;;;;6.32;3.08;;;28.70;85.90;;;;;;4992371;28;20046;-80
2022/06/12 08:05:57;;;;;;;19.45;13.82;;;29.20;85.40;;;;;;4961780;28;20108;-79
2022/06/12 08:08:23;;;;;;;23.85;16.88;;;29.20;85.10;;;;;;4975026;28;20050;-79
2022/06/12 08:10:48;;;;;;;20.95;17.80;;;29.20;85.20;;;;;;4988065;28;20054;-80
2022/06/12 08:13:14;;;;;;;12.95;8.48;;;28.80;84.30;;;;;;4980200;28;20062;-82
2022/06/12 08:15:45;;;;;;;9.35;4.43;;;29.30;84.40;;;;;;4986141;28;20457;-79
2022/06/12 08:18:12;;;;;;;12.32;6.40;;;29.00;83.30;;;;;;4989267;28;20788;-81
2022/06/12 08:20:46;;;;;;;9.75;4.40;;;28.90;83.60;;;;;;4976907;28;20085;-77
2022/06/12 08:26:19;;;;;;;20.67;16.13;;;29.30;83.70;;;;;;4901733;29;20122;-81
2022/06/12 08:28:54;;;;;;;41.20;31.13;;;29.20;82.20;;;;;;4976341;28;20169;-80
2022/06/12 08:31:25;;;;;;;21.17;14.25;;;29.70;80.70;;;;;;4993208;28;20049;-81
2022/06/12 08:33:54;;;;;;;10.77;7.93;;;29.50;80.80;;;;;;4991868;28;20064;-77
2022/06/12 08:36:21;;;;;;;14.55;7.68;;;28.80;79.90;;;;;;4637991;28;10000092;-82
2022/06/12 08:38:48;;;;;;;8.98;4.65;;;28.60;81.90;;;;;;4983458;28;20046;-81
2022/06/12 08:41:31;;;;;;;7.72;4.45;;;29.10;82.40;;;;;;4989724;28;20050;-84
2022/06/12 08:44:13;;;;;;;12.07;3.90;;;29.30;78.40;;;;;;4987670;28;20061;-81
2022/06/12 08:46:53;;;;;;;10.02;4.72;;;29.30;78.30;;;;;;4981862;28;20741;-81
2022/06/12 08:49:27;;;;;;;31.65;27.52;;;28.90;79.70;;;;;;4992574;28;20498;-80
2022/06/12 08:52:15;;;;;;;77.47;69.05;;;28.70;79.80;;;;;;4986254;28;20053;-79
2022/06/12 08:55:06;;;;;;;19.25;10.45;;;28.80;80.40;;;;;;4987139;28;20042;-78
2022/06/12 08:57:42;;;;;;;8.45;3.70;;;29.20;80.50;;;;;;4985106;28;20077;-79
2022/06/12 09:00:12;;;;;;;7.43;3.53;;;29.30;79.80;;;;;;4967952;28;20076;-78
2022/06/12 09:02:41;;;;;;;10.98;3.40;;;29.20;80.10;;;;;;4986481;28;20119;-78
2022/06/12 09:05:12;;;;;;;5.80;3.40;;;28.80;79.40;;;;;;4986766;28;20054;-78
2022/06/12 09:07:52;;;;;;;8.88;2.67;;;28.70;80.80;;;;;;4986092;28;20048;-80
2022/06/12 09:10:41;;;;;;;6.47;2.90;;;29.40;80.30;;;;;;4992247;28;20141;-78
2022/06/12 09:13:22;;;;;;;5.43;2.90;;;29.50;78.90;;;;;;4986175;28;20049;-78
2022/06/12 09:16:06;;;;;;;8.32;2.95;;;29.10;80.10;;;;;;4986143;28;20057;-77
2022/06/12 09:18:44;;;;;;;4.65;2.63;;;28.40;80.50;;;;;;4988580;28;20077;-77
2022/06/12 09:21:25;;;;;;;6.53;3.00;;;28.30;80.60;;;;;;4980404;28;20056;-76
2022/06/12 09:23:54;;;;;;;8.82;3.13;;;27.50;79.40;;;;;;4981652;28;20045;-78
2022/06/12 09:26:49;;;;;;;10.05;3.08;;;27.10;81.20;;;;;;4984627;28;20824;-79
2022/06/12 09:29:31;;;;;;;6.35;2.78;;;27.50;82.00;;;;;;4982811;28;20422;-81
2022/06/12 09:32:31;;;;;;;5.40;2.70;;;28.00;78.80;;;;;;4990404;28;20058;-80
2022/06/12 09:35:29;;;;;;;71.10;57.53;;;27.60;79.90;;;;;;4968340;28;20061;-75
2022/06/12 09:38:19;;;;;;;8.13;4.25;;;28.00;80.80;;;;;;4989509;28;20552;-74
2022/06/12 09:41:22;;;;;;;8.30;3.33;;;28.30;80.30;;;;;;4990212;28;20058;-78
2022/06/12 09:44:06;;;;;;;;;;;28.60;77.30;;;;;;4974037;28;20062;-80
2022/06/12 09:46:31;;;;;;;4.07;2.35;;;28.10;75.40;;;;;;4987114;28;20483;-80
2022/06/12 09:49:03;;;;;;;6.43;2.47;;;28.30;78.70;;;;;;4987108;28;20049;-78
2022/06/12 09:51:31;;;;;;;5.40;2.05;;;28.40;76.50;;;;;;4978314;28;20058;-79
2022/06/12 09:54:18;;;;;;;4.18;2.40;;;28.20;75.70;;;;;;4984029;28;20449;-79
2022/06/12 09:56:52;;;;;;;4.75;2.20;;;27.70;73.50;;;;;;4979250;28;20057;-80
2022/06/12 09:59:26;;;;;;;4.55;2.10;;;27.10;76.60;;;;;;4987237;28;20055;-79
2022/06/12 10:01:57;;;;;;;11.77;7.53;;;26.30;75.30;;;;;;4982089;28;20335;-75
2022/06/12 10:04:58;;;;;;;9.52;5.25;;;26.60;79.10;;;;;;4983848;28;20244;-77
2022/06/12 10:07:50;;;;;;;8.10;3.30;;;26.30;77.60;;;;;;4979898;28;20055;-81
2022/06/12 10:10:32;;;;;;;5.18;2.45;;;25.40;78.60;;;;;;4929120;28;20062;-78
2022/06/12 10:13:07;;;;;;;5.25;2.60;;;24.90;80.30;;;;;;4979575;28;20061;-77
2022/06/12 10:15:46;;;;;;;9.82;2.70;;;25.20;81.50;;;;;;4963196;28;20050;-77
2022/06/12 10:18:27;;;;;;;4.80;2.22;;;25.60;80.50;;;;;;4978504;28;20157;-78
2022/06/12 10:21:00;;;;;;;5.60;2.00;;;25.80;79.80;;;;;;4985154;28;20054;-80
2022/06/12 10:23:26;;;;;;;6.30;2.47;;;26.30;78.40;;;;;;4967228;28;20030;-81
2022/06/12 10:25:58;;;;;;;6.07;2.33;;;26.60;77.70;;;;;;4982782;28;20062;-79
2022/06/12 10:28:35;;;;;;;3.13;1.73;;;26.90;77.20;;;;;;4976092;28;20057;-79
2022/06/12 10:31:10;;;;;;;4.00;3.13;;;27.20;75.50;;;;;;4976961;28;20050;-82
2022/06/12 10:33:42;;;;;;;16.35;13.10;;;27.20;72.40;;;;;;4982061;28;20039;-77
2022/06/12 10:36:19;;;;;;;4.25;2.50;;;27.60;75.80;;;;;;4981928;28;20072;-76
2022/06/12 10:38:45;;;;;;;3.38;1.77;;;27.40;70.40;;;;;;4979844;28;20593;-76
2022/06/12 10:41:27;;;;;;;3.28;2.10;;;27.10;74.90;;;;;;4979943;28;20206;-77
2022/06/12 10:43:56;;;;;;;2.40;1.73;;;26.80;72.60;;;;;;4986483;28;20144;-77
2022/06/12 10:46:30;;;;;;;10.23;8.07;;;25.80;73.50;;;;;;4983342;28;20050;-79
2022/06/12 10:49:04;;;;;;;4.80;2.92;;;25.80;75.10;;;;;;4974095;28;20058;-80
2022/06/12 10:51:38;;;;;;;4.40;2.20;;;26.00;75.90;;;;;;4961822;28;20046;-78
2022/06/12 10:54:15;;;;;;;3.92;1.75;;;26.20;73.50;;;;;;4988307;28;20054;-79
2022/06/12 10:56:59;;;;;;;4.38;1.40;;;26.50;72.40;;;;;;4983395;28;20046;-80
2022/06/12 10:59:42;;;;;;;5.10;1.45;;;26.70;72.80;;;;;;4980434;28;20051;-80
2022/06/12 11:02:26;;;;;;;3.47;1.67;;;26.60;71.10;;;;;;4992471;28;20122;-77
2022/06/12 11:05:01;;;;;;;4.85;1.60;;;26.70;70.40;;;;;;4965074;28;20054;-79
2022/06/12 11:07:38;;;;;;;3.53;1.60;;;26.50;71.80;;;;;;4987411;28;20050;-79
2022/06/12 11:10:16;;;;;;;1.70;1.52;;;26.50;72.30;;;;;;4989894;28;20057;-79
2022/06/12 11:12:58;;;;;;;3.42;1.70;;;26.00;72.30;;;;;;4982752;28;20049;-78
2022/06/12 11:15:43;;;;;;;5.07;1.58;;;26.00;70.00;;;;;;4980345;28;20144;-78
2022/06/12 11:18:14;;;;;;;3.72;1.67;;;25.90;70.50;;;;;;4962875;28;20042;-77
2022/06/12 11:20:50;;;;;;;17.75;10.15;;;26.10;72.00;;;;;;4983339;28;20113;-80
2022/06/12 11:23:26;;;;;;;8.90;5.95;;;26.00;69.80;;;;;;4986666;28;20070;-80
2022/06/12 11:26:10;;;;;;;5.35;2.22;;;26.10;72.30;;;;;;4980374;28;20061;-77
2022/06/12 11:29:00;;;;;;;4.20;1.50;;;26.10;71.70;;;;;;4987961;28;20061;-77
2022/06/12 11:31:48;;;;;;;4.68;1.30;;;25.90;67.70;;;;;;4965708;28;20045;-77
2022/06/12 11:34:26;;;;;;;4.32;1.30;;;25.80;70.10;;;;;;4981293;28;20046;-77
2022/06/12 11:37:10;;;;;;;3.83;1.88;;;25.60;68.70;;;;;;4991146;28;20050;-75
2022/06/12 11:40:08;;;;;;;3.00;1.48;;;25.70;70.40;;;;;;4980342;28;20689;-77
2022/06/12 11:42:43;;;;;;;3.55;1.70;;;25.90;71.60;;;;;;4934276;28;20793;-77
2022/06/12 11:45:52;;;;;;;4.30;2.05;;;25.70;70.00;;;;;;4985371;28;20053;-76
2022/06/12 11:48:25;;;;;;;4.03;2.33;;;25.60;72.30;;;;;;4973945;28;20050;-76
2022/06/12 11:51:08;;;;;;;7.95;1.98;;;25.50;70.50;;;;;;4975630;28;20046;-78
2022/06/12 11:53:46;;;;;;;4.32;2.58;;;25.60;70.80;;;;;;4982532;28;20042;-79
2022/06/12 11:56:15;;;;;;;5.93;2.10;;;25.80;72.90;;;;;;4981947;28;20055;-78
2022/06/12 11:58:40;;;;;;;3.58;2.20;;;25.80;71.80;;;;;;4988879;28;20406;-80
2022/06/12 12:01:38;;;;;;;3.40;1.80;;;25.70;72.40;;;;;;4979109;28;20096;-78
2022/06/12 12:04:31;;;;;;;3.88;2.25;;;25.30;72.20;;;;;;4975301;28;20046;-77
2022/06/12 12:07:27;;;;;;;2.97;1.92;;;24.70;72.20;;;;;;4981027;28;20057;-76
2022/06/12 12:10:05;;;;;;;3.78;1.63;;;24.90;73.80;;;;;;4984788;28;20062;-80
2022/06/12 12:12:36;;;;;;;3.95;1.80;;;24.90;71.70;;;;;;4983487;28;20046;-79
2022/06/12 12:15:06;;;;;;;5.53;2.13;;;24.90;71.60;;;;;;4988560;28;20088;-78
2022/06/12 12:17:38;;;;;;;3.47;1.75;;;24.80;72.70;;;;;;4969507;28;20054;-77
2022/06/12 12:20:20;;;;;;;3.28;1.65;;;24.70;73.90;;;;;;4968332;28;20059;-77
2022/06/12 12:23:04;;;;;;;4.82;1.70;;;24.40;73.70;;;;;;4976678;28;20765;-76
2022/06/12 12:25:39;;;;;;;4.20;2.03;;;24.00;72.50;;;;;;4979613;28;20052;-78
2022/06/12 12:28:21;;;;;;;3.60;1.85;;;24.20;74.80;;;;;;4992244;28;20140;-82
2022/06/12 12:31:00;;;;;;;9.25;5.47;;;24.40;75.70;;;;;;4969673;28;20125;-79
2022/06/12 12:33:26;;;;;;;32.30;24.85;;;24.20;73.10;;;;;;4980396;28;20046;-83
2022/06/12 12:41:51;;;;;;;6.53;4.45;;;23.40;74.10;;;;;;4991179;28;20141;-86
2022/06/12 12:44:37;;;;;;;4.45;3.03;;;23.20;75.20;;;;;;4986293;28;20058;-77
2022/06/12 12:47:16;;;;;;;2.72;1.77;;;23.00;74.30;;;;;;4980286;28;20589;-78
2022/06/12 12:49:42;;;;;;;3.50;1.52;;;23.00;74.40;;;;;;4983444;28;20050;-76
2022/06/12 12:52:15;;;;;;;8.95;7.38;;;23.10;74.40;;;;;;4988172;28;20053;-77
2022/06/12 12:54:54;;;;;;;11.48;8.45;;;23.10;74.80;;;;;;4985102;28;20104;-77
2022/06/12 12:57:34;;;;;;;15.77;9.60;;;23.10;75.60;;;;;;4966248;28;20049;-78
2022/06/12 13:00:02;;;;;;;5.53;4.03;;;23.10;73.80;;;;;;4982282;28;20065;-81
2022/06/12 13:02:29;;;;;;;6.18;2.33;;;22.90;74.10;;;;;;4978724;28;20128;-79
2022/06/12 13:04:58;;;;;;;2.85;1.73;;;22.70;75.60;;;;;;4979710;28;20077;-79
2022/06/12 13:07:49;;;;;;;2.40;1.88;;;22.90;75.90;;;;;;4972365;28;20511;-76
2022/06/12 13:10:41;;;;;;;27.92;20.52;;;23.20;74.00;;;;;;4977571;28;20124;-77
2022/06/12 13:13:49;;;;;;;23.20;14.63;;;23.40;75.50;;;;;;4977599;28;20049;-80
2022/06/12 13:16:36;;;;;;;3.53;2.58;;;23.40;74.90;;;;;;4993953;28;20061;-74
2022/06/12 13:19:21;;;;;;;6.85;2.88;;;23.40;75.60;;;;;;4995828;28;20050;-74
2022/06/12 13:22:01;;;;;;;3.65;1.63;;;23.50;75.60;;;;;;4966729;28;20042;-75
2022/06/12 13:24:43;;;;;;;5.90;1.60;;;23.20;72.70;;;;;;4977716;28;20053;-76
2022/06/12 13:27:20;;;;;;;3.85;1.55;;;23.50;74.30;;;;;;4980257;28;20148;-75
2022/06/12 13:29:47;;;;;;;4.57;2.20;;;23.60;74.10;;;;;;4980950;28;20490;-78
2022/06/12 13:32:26;;;;;;;3.03;1.95;;;23.50;73.80;;;;;;4987313;28;20042;-76
2022/06/12 13:35:17;;;;;;;2.53;1.52;;;23.20;73.90;;;;;;4975210;28;20058;-80
2022/06/12 13:37:46;;;;;;;2.25;1.55;;;22.90;73.30;;;;;;4972381;28;20120;-75
2022/06/12 13:40:41;;;;;;;3.83;1.60;;;23.00;72.10;;;;;;4973463;28;20109;-79
2022/06/12 13:43:26;;;;;;;3.42;1.75;;;23.10;73.60;;;;;;4969941;28;20089;-79